THY8646 OBBI-LTFM
Flight info
| Callsign | THY8646 |
|---|---|
| Flight time | N/A |
| Altitude | 32000 |
| Route | BHR075/12L BHR B457 NARMI N697 HIL T540 ENABI L550 NOVPA N697 MENLI L677 CVO L617 NOZ L551 ANTAR DCT PIROX UN129 DUGLA/N0483F330 UZ713 INBET |
| Aircraft | B77L/H-SDE1E2E3FGHIJ2J3J4J5M1RWXY/LB1D1 |
Departure
| Time | 2026-04-27 17:42 |
|---|---|
| Airport | Bahrain International Airport (OBBI) |
Arrival
| Time | N/A |
|---|---|
| Airport | İstanbul Airport (LTFM) |
| Time | Latitude | Longitude | Altitude | Speed | Heading |
|---|---|---|---|---|---|
| 2026-04-27 15:58 | 26.27454 | 50.62005 | 21 ft | 0 kts | 211° |
| 2026-04-27 17:27 | 26.27467 | 50.62014 | 24 ft | 3 kts | 209° |
| 2026-04-27 17:27 | 26.27483 | 50.62027 | 25 ft | 3 kts | 230° |
| 2026-04-27 17:28 | 26.27493 | 50.62045 | 26 ft | 3 kts | 251° |
| 2026-04-27 17:28 | 26.27497 | 50.62067 | 26 ft | 3 kts | 268° |
| 2026-04-27 17:28 | 26.27498 | 50.62102 | 26 ft | 0 kts | 297° |
| 2026-04-27 17:31 | 26.27499 | 50.62100 | 26 ft | 1 kts | 297° |
| 2026-04-27 17:31 | 26.27506 | 50.62086 | 25 ft | 2 kts | 298° |
| 2026-04-27 17:32 | 26.27524 | 50.62052 | 23 ft | 6 kts | 302° |
| 2026-04-27 17:32 | 26.27572 | 50.61973 | 22 ft | 6 kts | 305° |
| 2026-04-27 17:32 | 26.27587 | 50.61953 | 21 ft | 0 kts | 326° |
| 2026-04-27 17:33 | 26.27591 | 50.61954 | 22 ft | 1 kts | 356° |
| 2026-04-27 17:33 | 26.27594 | 50.61963 | 24 ft | 1 kts | 71° |
| 2026-04-27 17:33 | 26.27578 | 50.61990 | 21 ft | 6 kts | 124° |
| 2026-04-27 17:34 | 26.27564 | 50.62037 | 22 ft | 9 kts | 89° |
| 2026-04-27 17:34 | 26.27592 | 50.62065 | 21 ft | 6 kts | 22° |
| 2026-04-27 17:34 | 26.27627 | 50.62058 | 24 ft | 5 kts | 329° |
| 2026-04-27 17:34 | 26.27658 | 50.62025 | 23 ft | 7 kts | 309° |
| 2026-04-27 17:35 | 26.27689 | 50.61977 | 21 ft | 8 kts | 304° |
| 2026-04-27 17:35 | 26.27719 | 50.61927 | 24 ft | 8 kts | 304° |
| 2026-04-27 17:35 | 26.27749 | 50.61876 | 25 ft | 8 kts | 303° |
| 2026-04-27 17:35 | 26.27779 | 50.61826 | 24 ft | 8 kts | 303° |
| 2026-04-27 17:36 | 26.27808 | 50.61775 | 25 ft | 8 kts | 302° |
| 2026-04-27 17:36 | 26.27837 | 50.61724 | 25 ft | 8 kts | 303° |
| 2026-04-27 17:36 | 26.27872 | 50.61678 | 25 ft | 8 kts | 320° |
| 2026-04-27 17:36 | 26.27895 | 50.61665 | 25 ft | 0 kts | 341° |
| 2026-04-27 17:39 | 26.27896 | 50.61665 | 22 ft | 1 kts | 341° |
| 2026-04-27 17:39 | 26.27928 | 50.61656 | 28 ft | 6 kts | 352° |
| 2026-04-27 17:39 | 26.27971 | 50.61666 | 26 ft | 6 kts | 24° |
| 2026-04-27 17:40 | 26.28008 | 50.61693 | 28 ft | 6 kts | 34° |
| 2026-04-27 17:40 | 26.28030 | 50.61732 | 28 ft | 7 kts | 95° |
| 2026-04-27 17:40 | 26.28020 | 50.61752 | 27 ft | 0 kts | 123° |
| 2026-04-27 17:41 | 26.27996 | 50.61792 | 27 ft | 20 kts | 123° |
| 2026-04-27 17:41 | 26.27797 | 50.62132 | 25 ft | 86 kts | 123° |
| 2026-04-27 17:42 | 26.27361 | 50.62883 | 24 ft | 143 kts | 123° |
| 2026-04-27 17:42 | 26.26739 | 50.63960 | 27 ft | 185 kts | 122° |
| 2026-04-27 17:42 | 26.26031 | 50.65169 | 465 ft | 183 kts | 123° |
| 2026-04-27 17:42 | 26.25439 | 50.66454 | 767 ft | 189 kts | 99° |
| 2026-04-27 17:43 | 26.25532 | 50.67907 | 1211 ft | 191 kts | 78° |
| 2026-04-27 17:43 | 26.25843 | 50.69431 | 1425 ft | 213 kts | 78° |
| 2026-04-27 17:43 | 26.26185 | 50.71120 | 1626 ft | 235 kts | 78° |
| 2026-04-27 17:43 | 26.26434 | 50.72332 | 1812 ft | 247 kts | 78° |
| 2026-04-27 17:44 | 26.26830 | 50.74251 | 2229 ft | 260 kts | 78° |
| 2026-04-27 17:44 | 26.27249 | 50.76251 | 2748 ft | 270 kts | 78° |
| 2026-04-27 17:44 | 26.27692 | 50.78354 | 2763 ft | 282 kts | 78° |
| 2026-04-27 17:44 | 26.28138 | 50.80464 | 2924 ft | 278 kts | 78° |
| 2026-04-27 17:45 | 26.28582 | 50.82557 | 2953 ft | 276 kts | 78° |
| 2026-04-27 17:45 | 26.29023 | 50.84638 | 2994 ft | 276 kts | 78° |
| 2026-04-27 17:45 | 26.29463 | 50.86726 | 3002 ft | 277 kts | 78° |
| 2026-04-27 17:45 | 26.29905 | 50.88824 | 3010 ft | 278 kts | 78° |
| 2026-04-27 17:46 | 26.30346 | 50.90922 | 3358 ft | 279 kts | 78° |
| 2026-04-27 17:46 | 26.30782 | 50.93016 | 4003 ft | 283 kts | 77° |
| 2026-04-27 17:46 | 26.31301 | 50.95142 | 4595 ft | 286 kts | 65° |
| 2026-04-27 17:46 | 26.32482 | 50.96929 | 5150 ft | 289 kts | 37° |
| 2026-04-27 17:47 | 26.34238 | 50.97932 | 5878 ft | 282 kts | 12° |
| 2026-04-27 17:47 | 26.35507 | 50.98221 | 6329 ft | 282 kts | 6° |
| 2026-04-27 17:47 | 26.38123 | 50.98584 | 7163 ft | 285 kts | 3° |
| 2026-04-27 17:47 | 26.40104 | 50.98820 | 7796 ft | 287 kts | 3° |
| 2026-04-27 17:48 | 26.42095 | 50.98935 | 8345 ft | 285 kts | 347° |
| 2026-04-27 17:48 | 26.43884 | 50.98070 | 8818 ft | 283 kts | 315° |
| 2026-04-27 17:48 | 26.44930 | 50.96292 | 9411 ft | 279 kts | 284° |
| 2026-04-27 17:48 | 26.45132 | 50.94147 | 10016 ft | 280 kts | 268° |
| 2026-04-27 17:49 | 26.44896 | 50.91962 | 10445 ft | 291 kts | 259° |
| 2026-04-27 17:49 | 26.44392 | 50.89685 | 10601 ft | 314 kts | 255° |
| 2026-04-27 17:49 | 26.43771 | 50.87260 | 10756 ft | 336 kts | 255° |
| 2026-04-27 17:49 | 26.43096 | 50.84686 | 10954 ft | 355 kts | 255° |
| 2026-04-27 17:50 | 26.42396 | 50.81995 | 11454 ft | 365 kts | 255° |
| 2026-04-27 17:50 | 26.40989 | 50.76479 | 11997 ft | 372 kts | 255° |
| 2026-04-27 17:50 | 26.40295 | 50.73710 | 12006 ft | 370 kts | 255° |
| 2026-04-27 17:51 | 26.39606 | 50.70945 | 12004 ft | 369 kts | 255° |
| 2026-04-27 17:51 | 26.38920 | 50.68185 | 12006 ft | 369 kts | 255° |
| 2026-04-27 17:51 | 26.38233 | 50.65417 | 12347 ft | 372 kts | 255° |
| 2026-04-27 17:51 | 26.37521 | 50.62636 | 13181 ft | 373 kts | 256° |
| 2026-04-27 17:52 | 26.36828 | 50.59847 | 14028 ft | 373 kts | 256° |
| 2026-04-27 17:52 | 26.36149 | 50.57081 | 14735 ft | 376 kts | 256° |
| 2026-04-27 17:52 | 26.35454 | 50.54257 | 15404 ft | 379 kts | 256° |
| 2026-04-27 17:52 | 26.34746 | 50.51400 | 16094 ft | 382 kts | 256° |
| 2026-04-27 17:53 | 26.34033 | 50.48531 | 16783 ft | 385 kts | 255° |
| 2026-04-27 17:53 | 26.33312 | 50.45640 | 17460 ft | 389 kts | 255° |
| 2026-04-27 17:53 | 26.32583 | 50.42720 | 18113 ft | 392 kts | 255° |
| 2026-04-27 17:53 | 26.31857 | 50.39814 | 18660 ft | 395 kts | 255° |
| 2026-04-27 17:54 | 26.31134 | 50.36852 | 19180 ft | 396 kts | 258° |
| 2026-04-27 17:54 | 26.30845 | 50.33782 | 19639 ft | 401 kts | 270° |
| 2026-04-27 17:54 | 26.31104 | 50.30666 | 20208 ft | 404 kts | 278° |
| 2026-04-27 17:54 | 26.31836 | 50.27632 | 20801 ft | 406 kts | 288° |
| 2026-04-27 17:55 | 26.32896 | 50.24685 | 21298 ft | 411 kts | 290° |
| 2026-04-27 17:55 | 26.33985 | 50.21765 | 21800 ft | 414 kts | 290° |
| 2026-04-27 17:55 | 26.35097 | 50.18789 | 22333 ft | 417 kts | 290° |
| 2026-04-27 17:55 | 26.36206 | 50.15790 | 22882 ft | 420 kts | 289° |
| 2026-04-27 17:56 | 26.37310 | 50.12767 | 23380 ft | 422 kts | 289° |
| 2026-04-27 17:56 | 26.38413 | 50.09721 | 23833 ft | 424 kts | 289° |
| 2026-04-27 17:56 | 26.39517 | 50.06656 | 24297 ft | 426 kts | 289° |
| 2026-04-27 17:56 | 26.40620 | 50.03583 | 24793 ft | 427 kts | 289° |
| 2026-04-27 17:57 | 26.41724 | 50.00502 | 25277 ft | 428 kts | 288° |
| 2026-04-27 17:57 | 26.42833 | 49.97407 | 25770 ft | 429 kts | 288° |
| 2026-04-27 17:57 | 26.43943 | 49.94305 | 26220 ft | 431 kts | 288° |
| 2026-04-27 17:57 | 26.45056 | 49.91190 | 26668 ft | 433 kts | 288° |
| 2026-04-27 17:58 | 26.46171 | 49.88071 | 27106 ft | 434 kts | 288° |
| 2026-04-27 17:58 | 26.47294 | 49.84926 | 27546 ft | 436 kts | 288° |
| 2026-04-27 17:58 | 26.48418 | 49.81779 | 27982 ft | 438 kts | 288° |
| 2026-04-27 17:58 | 26.49539 | 49.78611 | 28403 ft | 439 kts | 287° |
| 2026-04-27 17:59 | 26.50491 | 49.75374 | 28782 ft | 438 kts | 282° |
| 2026-04-27 17:59 | 26.51313 | 49.72084 | 29137 ft | 440 kts | 282° |
| 2026-04-27 17:59 | 26.52122 | 49.68827 | 29494 ft | 442 kts | 282° |
| 2026-04-27 17:59 | 26.52947 | 49.65511 | 29841 ft | 444 kts | 282° |
| 2026-04-27 18:00 | 26.53778 | 49.62185 | 30171 ft | 444 kts | 282° |
| 2026-04-27 18:00 | 26.54609 | 49.58871 | 30592 ft | 442 kts | 282° |
| 2026-04-27 18:00 | 26.55439 | 49.55572 | 31083 ft | 439 kts | 282° |
| 2026-04-27 18:00 | 26.56263 | 49.52299 | 31546 ft | 436 kts | 282° |
| 2026-04-27 18:01 | 26.57083 | 49.49040 | 31954 ft | 434 kts | 282° |
| 2026-04-27 18:01 | 26.57896 | 49.45801 | 32318 ft | 433 kts | 282° |
| 2026-04-27 18:01 | 26.58708 | 49.42561 | 32665 ft | 432 kts | 282° |
| 2026-04-27 18:01 | 26.59516 | 49.39333 | 33028 ft | 431 kts | 281° |
| 2026-04-27 18:02 | 26.60322 | 49.36114 | 33394 ft | 429 kts | 281° |
| 2026-04-27 18:02 | 26.61123 | 49.32907 | 33710 ft | 429 kts | 281° |
| 2026-04-27 18:02 | 26.62735 | 49.26439 | 33787 ft | 432 kts | 281° |
| 2026-04-27 18:03 | 26.64333 | 49.20026 | 33790 ft | 429 kts | 281° |
| 2026-04-27 18:03 | 26.65927 | 49.13612 | 33793 ft | 427 kts | 281° |
| 2026-04-27 18:04 | 26.67515 | 49.07207 | 33800 ft | 427 kts | 281° |
| 2026-04-27 18:04 | 26.69099 | 49.00803 | 33806 ft | 428 kts | 281° |
| 2026-04-27 18:05 | 26.70685 | 48.94379 | 33791 ft | 429 kts | 281° |
| 2026-04-27 18:05 | 26.72272 | 48.87935 | 33795 ft | 430 kts | 281° |
| 2026-04-27 18:06 | 26.73863 | 48.81469 | 33793 ft | 431 kts | 281° |
| 2026-04-27 18:06 | 26.75440 | 48.74989 | 33796 ft | 431 kts | 279° |
| 2026-04-27 18:07 | 26.76312 | 48.68445 | 33799 ft | 427 kts | 272° |
| 2026-04-27 18:07 | 26.76415 | 48.61831 | 33797 ft | 424 kts | 266° |
| 2026-04-27 18:08 | 26.76201 | 48.55240 | 33791 ft | 423 kts | 266° |
| 2026-04-27 18:08 | 26.75995 | 48.48658 | 33793 ft | 423 kts | 266° |
| 2026-04-27 18:09 | 26.75807 | 48.42125 | 33794 ft | 422 kts | 266° |
| 2026-04-27 18:09 | 26.75617 | 48.35579 | 33794 ft | 421 kts | 266° |
| 2026-04-27 18:10 | 26.75437 | 48.29036 | 33793 ft | 420 kts | 266° |
| 2026-04-27 18:10 | 26.75265 | 48.22503 | 33798 ft | 419 kts | 266° |
| 2026-04-27 18:11 | 26.75088 | 48.15982 | 33782 ft | 419 kts | 266° |
| 2026-04-27 18:11 | 26.74908 | 48.09461 | 33798 ft | 419 kts | 266° |
| 2026-04-27 18:12 | 26.74724 | 48.02945 | 33806 ft | 419 kts | 266° |
| 2026-04-27 18:12 | 26.74538 | 47.96462 | 33810 ft | 419 kts | 266° |
| 2026-04-27 18:13 | 26.74349 | 47.89936 | 33810 ft | 420 kts | 266° |
| 2026-04-27 18:13 | 26.74520 | 47.83383 | 33819 ft | 422 kts | 270° |
| 2026-04-27 18:14 | 26.74871 | 47.76816 | 33815 ft | 422 kts | 270° |
| 2026-04-27 18:14 | 26.75210 | 47.70246 | 33818 ft | 423 kts | 270° |
| 2026-04-27 18:15 | 26.75537 | 47.63669 | 33812 ft | 423 kts | 270° |
| 2026-04-27 18:15 | 26.75858 | 47.57135 | 33821 ft | 423 kts | 270° |
| 2026-04-27 18:16 | 26.76178 | 47.50558 | 33817 ft | 422 kts | 270° |
| 2026-04-27 18:16 | 26.76495 | 47.44001 | 33822 ft | 422 kts | 270° |
| 2026-04-27 18:17 | 26.76859 | 47.37459 | 33814 ft | 422 kts | 272° |
| 2026-04-27 18:17 | 26.77799 | 47.30958 | 33821 ft | 423 kts | 275° |
| 2026-04-27 18:18 | 26.78813 | 47.24472 | 33829 ft | 423 kts | 275° |
| 2026-04-27 18:18 | 26.79806 | 47.18022 | 33828 ft | 422 kts | 275° |
| 2026-04-27 18:19 | 26.80794 | 47.11545 | 33819 ft | 422 kts | 275° |
| 2026-04-27 18:19 | 26.81781 | 47.05052 | 33831 ft | 422 kts | 275° |
| 2026-04-27 18:20 | 26.82759 | 46.98598 | 33830 ft | 422 kts | 275° |
| 2026-04-27 18:20 | 26.83740 | 46.92102 | 33833 ft | 423 kts | 275° |
| 2026-04-27 18:21 | 26.84719 | 46.85597 | 33827 ft | 423 kts | 275° |
| 2026-04-27 18:21 | 26.85691 | 46.79121 | 33828 ft | 424 kts | 275° |
| 2026-04-27 18:22 | 26.86667 | 46.72601 | 33830 ft | 424 kts | 275° |
| 2026-04-27 18:22 | 26.87640 | 46.66079 | 33830 ft | 424 kts | 275° |
| 2026-04-27 18:23 | 26.88606 | 46.59581 | 33831 ft | 424 kts | 275° |
| 2026-04-27 18:23 | 26.89572 | 46.53064 | 33826 ft | 424 kts | 275° |
| 2026-04-27 18:24 | 26.90534 | 46.46545 | 33824 ft | 423 kts | 274° |
| 2026-04-27 18:24 | 26.91489 | 46.40063 | 33824 ft | 423 kts | 274° |
| 2026-04-27 18:25 | 26.92453 | 46.33556 | 33825 ft | 423 kts | 275° |
| 2026-04-27 18:25 | 26.93424 | 46.27042 | 33822 ft | 423 kts | 274° |
| 2026-04-27 18:26 | 26.94390 | 46.20536 | 33820 ft | 423 kts | 274° |
| 2026-04-27 18:26 | 26.95351 | 46.14040 | 33819 ft | 423 kts | 274° |
| 2026-04-27 18:27 | 26.96303 | 46.07574 | 33821 ft | 422 kts | 274° |
| 2026-04-27 18:27 | 26.97259 | 46.01059 | 33823 ft | 422 kts | 274° |
| 2026-04-27 18:28 | 26.98206 | 45.94588 | 33822 ft | 422 kts | 274° |
| 2026-04-27 18:28 | 26.99155 | 45.88076 | 33823 ft | 423 kts | 274° |
| 2026-04-27 18:29 | 27.00102 | 45.81563 | 33814 ft | 423 kts | 274° |
| 2026-04-27 18:29 | 27.00886 | 45.76149 | 33819 ft | 423 kts | 274° |
| 2026-04-27 18:30 | 27.01827 | 45.69639 | 33826 ft | 423 kts | 274° |
| 2026-04-27 18:30 | 27.02766 | 45.63116 | 33814 ft | 423 kts | 274° |
| 2026-04-27 18:31 | 27.03697 | 45.56630 | 33811 ft | 423 kts | 274° |
| 2026-04-27 18:31 | 27.04618 | 45.50096 | 33810 ft | 424 kts | 274° |
| 2026-04-27 18:32 | 27.05527 | 45.43560 | 33811 ft | 424 kts | 273° |
| 2026-04-27 18:32 | 27.06290 | 45.37010 | 33818 ft | 423 kts | 272° |
| 2026-04-27 18:33 | 27.06992 | 45.30493 | 33814 ft | 423 kts | 272° |
| 2026-04-27 18:33 | 27.07711 | 45.23921 | 33809 ft | 424 kts | 272° |
| 2026-04-27 18:34 | 27.08440 | 45.17338 | 33806 ft | 424 kts | 272° |
| 2026-04-27 18:34 | 27.09166 | 45.10785 | 33805 ft | 425 kts | 272° |
| 2026-04-27 18:35 | 27.09890 | 45.04224 | 33805 ft | 425 kts | 272° |
| 2026-04-27 18:35 | 27.10614 | 44.97627 | 33806 ft | 425 kts | 272° |
| 2026-04-27 18:36 | 27.11335 | 44.91030 | 33802 ft | 426 kts | 272° |
| 2026-04-27 18:36 | 27.12054 | 44.84423 | 33805 ft | 425 kts | 272° |
| 2026-04-27 18:37 | 27.12766 | 44.77859 | 33802 ft | 425 kts | 272° |
| 2026-04-27 18:37 | 27.13477 | 44.71260 | 33800 ft | 426 kts | 272° |
| 2026-04-27 18:38 | 27.14186 | 44.64651 | 33801 ft | 425 kts | 272° |
| 2026-04-27 18:38 | 27.14890 | 44.58053 | 33800 ft | 425 kts | 272° |
| 2026-04-27 18:39 | 27.15586 | 44.51507 | 33791 ft | 425 kts | 272° |
| 2026-04-27 18:39 | 27.16283 | 44.44918 | 33797 ft | 424 kts | 272° |
| 2026-04-27 18:40 | 27.16976 | 44.38335 | 33795 ft | 424 kts | 271° |
| 2026-04-27 18:40 | 27.17662 | 44.31751 | 33791 ft | 423 kts | 271° |
| 2026-04-27 18:41 | 27.18337 | 44.25216 | 33796 ft | 423 kts | 271° |
| 2026-04-27 18:41 | 27.19011 | 44.18659 | 33793 ft | 422 kts | 271° |
| 2026-04-27 18:42 | 27.19569 | 44.13207 | 33802 ft | 422 kts | 271° |
| 2026-04-27 18:42 | 27.20351 | 44.05542 | 33798 ft | 422 kts | 271° |
| 2026-04-27 18:43 | 27.21012 | 43.99023 | 33803 ft | 422 kts | 271° |
| 2026-04-27 18:43 | 27.21677 | 43.92445 | 33798 ft | 422 kts | 271° |
| 2026-04-27 18:44 | 27.22337 | 43.85872 | 33802 ft | 423 kts | 271° |
| 2026-04-27 18:44 | 27.22990 | 43.79347 | 33796 ft | 423 kts | 271° |
| 2026-04-27 18:45 | 27.23645 | 43.72776 | 33805 ft | 423 kts | 271° |
| 2026-04-27 18:45 | 27.24299 | 43.66189 | 33803 ft | 423 kts | 271° |
| 2026-04-27 18:46 | 27.24949 | 43.59634 | 33803 ft | 424 kts | 271° |
| 2026-04-27 18:46 | 27.25599 | 43.53047 | 33802 ft | 424 kts | 271° |
| 2026-04-27 18:47 | 27.26246 | 43.46463 | 33803 ft | 424 kts | 271° |
| 2026-04-27 18:47 | 27.26890 | 43.39868 | 33812 ft | 424 kts | 271° |
| 2026-04-27 18:48 | 27.27527 | 43.33317 | 33806 ft | 424 kts | 271° |
| 2026-04-27 18:48 | 27.28166 | 43.26722 | 33809 ft | 424 kts | 271° |
| 2026-04-27 18:49 | 27.28800 | 43.20131 | 33806 ft | 424 kts | 271° |
| 2026-04-27 18:49 | 27.29431 | 43.13542 | 33815 ft | 424 kts | 271° |
| 2026-04-27 18:50 | 27.30061 | 43.06939 | 33816 ft | 424 kts | 271° |
| 2026-04-27 18:50 | 27.30682 | 43.00388 | 33822 ft | 424 kts | 271° |
| 2026-04-27 18:51 | 27.31305 | 42.93790 | 33816 ft | 424 kts | 271° |
| 2026-04-27 18:51 | 27.31925 | 42.87178 | 33815 ft | 424 kts | 271° |
| 2026-04-27 18:52 | 27.32542 | 42.80574 | 33824 ft | 424 kts | 271° |
| 2026-04-27 18:53 | 27.33456 | 42.70728 | 33839 ft | 423 kts | 271° |
| 2026-04-27 18:53 | 27.34064 | 42.64133 | 33838 ft | 423 kts | 271° |
| 2026-04-27 18:54 | 27.34668 | 42.57548 | 33843 ft | 423 kts | 271° |
| 2026-04-27 18:54 | 27.35270 | 42.50952 | 33835 ft | 423 kts | 271° |
| 2026-04-27 18:55 | 27.35865 | 42.44403 | 33841 ft | 423 kts | 271° |
| 2026-04-27 18:55 | 27.36455 | 42.37847 | 33847 ft | 423 kts | 271° |
| 2026-04-27 18:56 | 27.37041 | 42.31265 | 33853 ft | 422 kts | 271° |
| 2026-04-27 18:56 | 27.37625 | 42.24684 | 33857 ft | 422 kts | 271° |
| 2026-04-27 18:57 | 27.38205 | 42.18109 | 33858 ft | 422 kts | 271° |
| 2026-04-27 18:57 | 27.38780 | 42.11567 | 33864 ft | 422 kts | 271° |
| 2026-04-27 18:58 | 27.39354 | 42.04994 | 33875 ft | 422 kts | 271° |
| 2026-04-27 18:58 | 27.39924 | 41.98431 | 33889 ft | 421 kts | 271° |
| 2026-04-27 18:59 | 27.40489 | 41.91868 | 33901 ft | 421 kts | 271° |
| 2026-04-27 18:59 | 27.41052 | 41.85336 | 33905 ft | 420 kts | 271° |
| 2026-04-27 19:00 | 27.41613 | 41.78764 | 33915 ft | 420 kts | 271° |
| 2026-04-27 19:00 | 27.42356 | 41.72264 | 33904 ft | 425 kts | 278° |
| 2026-04-27 19:01 | 27.44241 | 41.65894 | 33914 ft | 432 kts | 285° |
| 2026-04-27 19:01 | 27.47080 | 41.59838 | 33911 ft | 441 kts | 293° |
| 2026-04-27 19:02 | 27.50389 | 41.54006 | 33919 ft | 441 kts | 294° |
| 2026-04-27 19:02 | 27.53693 | 41.48175 | 33900 ft | 441 kts | 294° |
| 2026-04-27 19:03 | 27.56931 | 41.42379 | 33899 ft | 440 kts | 294° |
| 2026-04-27 19:03 | 27.60185 | 41.36509 | 33888 ft | 440 kts | 294° |
| 2026-04-27 19:04 | 27.63427 | 41.30650 | 33887 ft | 440 kts | 294° |
| 2026-04-27 19:04 | 27.66653 | 41.24816 | 33877 ft | 440 kts | 294° |
| 2026-04-27 19:05 | 27.69891 | 41.18955 | 33873 ft | 440 kts | 294° |
| 2026-04-27 19:05 | 27.73132 | 41.13079 | 33873 ft | 440 kts | 294° |
| 2026-04-27 19:06 | 27.76368 | 41.07206 | 33881 ft | 440 kts | 294° |
| 2026-04-27 19:06 | 27.79581 | 41.01361 | 33884 ft | 441 kts | 294° |
| 2026-04-27 19:07 | 27.82814 | 40.95461 | 33878 ft | 441 kts | 294° |
| 2026-04-27 19:07 | 27.86044 | 40.89557 | 33903 ft | 442 kts | 294° |
| 2026-04-27 19:08 | 27.89277 | 40.83638 | 33895 ft | 442 kts | 294° |
| 2026-04-27 19:08 | 27.92492 | 40.77745 | 33898 ft | 442 kts | 294° |
| 2026-04-27 19:09 | 27.95721 | 40.71818 | 33900 ft | 442 kts | 294° |
| 2026-04-27 19:09 | 27.98948 | 40.65889 | 33900 ft | 442 kts | 294° |
| 2026-04-27 19:10 | 28.02156 | 40.59985 | 33903 ft | 442 kts | 294° |
| 2026-04-27 19:10 | 28.05380 | 40.54042 | 33908 ft | 443 kts | 294° |
| 2026-04-27 19:11 | 28.08608 | 40.48085 | 33896 ft | 443 kts | 294° |
| 2026-04-27 19:11 | 28.11815 | 40.42159 | 33909 ft | 443 kts | 294° |
| 2026-04-27 19:12 | 28.15039 | 40.36192 | 33904 ft | 443 kts | 294° |
| 2026-04-27 19:12 | 28.18265 | 40.30211 | 33904 ft | 443 kts | 294° |
| 2026-04-27 19:13 | 28.21467 | 40.24269 | 33910 ft | 444 kts | 294° |
| 2026-04-27 19:13 | 28.24688 | 40.18281 | 33909 ft | 444 kts | 294° |
| 2026-04-27 19:14 | 28.27911 | 40.12284 | 33910 ft | 445 kts | 294° |
| 2026-04-27 19:14 | 28.31303 | 40.06418 | 33911 ft | 452 kts | 300° |
| 2026-04-27 19:15 | 28.35274 | 40.00868 | 33914 ft | 453 kts | 301° |
| 2026-04-27 19:15 | 28.38599 | 39.96247 | 33908 ft | 453 kts | 301° |
| 2026-04-27 19:16 | 28.42579 | 39.90677 | 33895 ft | 453 kts | 301° |
| 2026-04-27 19:16 | 28.46512 | 39.85141 | 33900 ft | 452 kts | 302° |
| 2026-04-27 19:17 | 28.50463 | 39.79569 | 33903 ft | 451 kts | 302° |
| 2026-04-27 19:17 | 28.54400 | 39.74007 | 33906 ft | 451 kts | 302° |
| 2026-04-27 19:18 | 28.58338 | 39.68441 | 33905 ft | 450 kts | 302° |
| 2026-04-27 19:18 | 28.62243 | 39.62910 | 33910 ft | 450 kts | 302° |
| 2026-04-27 19:19 | 28.66167 | 39.57346 | 33909 ft | 450 kts | 302° |
| 2026-04-27 19:19 | 28.70086 | 39.51782 | 33914 ft | 450 kts | 302° |
| 2026-04-27 19:20 | 28.73980 | 39.46246 | 33915 ft | 450 kts | 302° |
| 2026-04-27 19:20 | 28.77904 | 39.40660 | 33916 ft | 451 kts | 302° |
| 2026-04-27 19:21 | 28.81826 | 39.35069 | 33921 ft | 452 kts | 302° |
| 2026-04-27 19:21 | 28.85749 | 39.29471 | 33923 ft | 452 kts | 302° |
| 2026-04-27 19:22 | 28.89680 | 39.23853 | 33924 ft | 453 kts | 302° |
| 2026-04-27 19:22 | 28.93584 | 39.18266 | 33933 ft | 453 kts | 302° |
| 2026-04-27 19:23 | 28.97513 | 39.12634 | 33938 ft | 453 kts | 302° |
| 2026-04-27 19:23 | 29.01446 | 39.06988 | 33939 ft | 454 kts | 302° |
| 2026-04-27 19:24 | 29.05377 | 39.01340 | 33943 ft | 454 kts | 302° |
| 2026-04-27 19:24 | 29.09056 | 38.95527 | 33937 ft | 444 kts | 291° |
| 2026-04-27 19:25 | 29.10921 | 38.88947 | 33954 ft | 436 kts | 277° |
| 2026-04-27 19:25 | 29.11163 | 38.82084 | 33940 ft | 432 kts | 268° |
| 2026-04-27 19:26 | 29.11058 | 38.75183 | 33946 ft | 435 kts | 268° |
| 2026-04-27 19:26 | 29.10990 | 38.68245 | 33949 ft | 437 kts | 268° |
| 2026-04-27 19:27 | 29.10949 | 38.61271 | 33946 ft | 439 kts | 268° |
| 2026-04-27 19:27 | 29.10910 | 38.54283 | 33951 ft | 439 kts | 268° |
| 2026-04-27 19:28 | 29.10867 | 38.47339 | 33948 ft | 439 kts | 268° |
| 2026-04-27 19:28 | 29.10820 | 38.40366 | 33943 ft | 438 kts | 268° |
| 2026-04-27 19:29 | 29.10766 | 38.33410 | 33948 ft | 437 kts | 268° |
| 2026-04-27 19:29 | 29.10702 | 38.26469 | 33946 ft | 436 kts | 268° |
| 2026-04-27 19:30 | 29.10636 | 38.19545 | 33942 ft | 435 kts | 268° |
| 2026-04-27 19:30 | 29.10567 | 38.12633 | 33946 ft | 435 kts | 268° |
| 2026-04-27 19:31 | 29.10495 | 38.05720 | 33940 ft | 434 kts | 268° |
| 2026-04-27 19:31 | 29.10421 | 37.98857 | 33940 ft | 434 kts | 268° |
| 2026-04-27 19:32 | 29.10342 | 37.91949 | 33940 ft | 435 kts | 268° |
| 2026-04-27 19:32 | 29.10259 | 37.85035 | 33942 ft | 435 kts | 268° |
| 2026-04-27 19:33 | 29.10173 | 37.78104 | 33941 ft | 436 kts | 268° |
| 2026-04-27 19:33 | 29.10083 | 37.71170 | 33945 ft | 436 kts | 268° |
| 2026-04-27 19:34 | 29.09990 | 37.64276 | 33952 ft | 436 kts | 268° |
| 2026-04-27 19:34 | 29.09893 | 37.57335 | 33947 ft | 436 kts | 268° |
| 2026-04-27 19:35 | 29.09793 | 37.50390 | 33950 ft | 437 kts | 268° |
| 2026-04-27 19:35 | 29.09736 | 37.43440 | 33955 ft | 437 kts | 268° |
| 2026-04-27 19:36 | 29.09699 | 37.36483 | 33958 ft | 437 kts | 268° |
| 2026-04-27 19:36 | 29.09654 | 37.29570 | 33963 ft | 438 kts | 268° |
| 2026-04-27 19:37 | 29.09602 | 37.22607 | 33966 ft | 438 kts | 268° |
| 2026-04-27 19:37 | 29.09544 | 37.15641 | 33965 ft | 438 kts | 268° |
| 2026-04-27 19:38 | 29.09483 | 37.08668 | 33967 ft | 439 kts | 268° |
| 2026-04-27 19:38 | 29.09418 | 37.01688 | 33968 ft | 439 kts | 268° |
| 2026-04-27 19:39 | 29.09349 | 36.94693 | 33968 ft | 440 kts | 268° |
| 2026-04-27 19:39 | 29.09277 | 36.87687 | 33969 ft | 441 kts | 268° |
| 2026-04-27 19:40 | 29.09201 | 36.80679 | 33966 ft | 441 kts | 268° |
| 2026-04-27 19:40 | 29.09121 | 36.73669 | 33966 ft | 441 kts | 268° |
| 2026-04-27 19:41 | 29.09037 | 36.66646 | 33967 ft | 441 kts | 268° |
| 2026-04-27 19:41 | 29.08951 | 36.59634 | 33962 ft | 441 kts | 268° |
| 2026-04-27 19:42 | 29.08860 | 36.52615 | 33962 ft | 442 kts | 268° |
| 2026-04-27 19:42 | 29.08755 | 36.45594 | 33967 ft | 442 kts | 268° |
| 2026-04-27 19:43 | 29.08569 | 36.38622 | 33966 ft | 442 kts | 268° |
| 2026-04-27 19:43 | 29.08362 | 36.31602 | 33965 ft | 441 kts | 268° |
| 2026-04-27 19:44 | 29.08159 | 36.24580 | 33955 ft | 441 kts | 268° |
| 2026-04-27 19:44 | 29.07958 | 36.17564 | 33954 ft | 442 kts | 268° |
| 2026-04-27 19:45 | 29.07755 | 36.10541 | 33958 ft | 442 kts | 268° |
| 2026-04-27 19:45 | 29.07550 | 36.03561 | 33958 ft | 441 kts | 268° |
| 2026-04-27 19:46 | 29.07340 | 35.96551 | 33959 ft | 441 kts | 268° |
| 2026-04-27 19:46 | 29.07127 | 35.89531 | 33964 ft | 441 kts | 268° |
| 2026-04-27 19:47 | 29.06910 | 35.82527 | 33966 ft | 441 kts | 268° |
| 2026-04-27 19:47 | 29.06689 | 35.75518 | 33971 ft | 441 kts | 268° |
| 2026-04-27 19:48 | 29.06465 | 35.68523 | 33971 ft | 440 kts | 268° |
| 2026-04-27 19:48 | 29.06239 | 35.61582 | 33977 ft | 439 kts | 268° |
| 2026-04-27 19:49 | 29.06009 | 35.54602 | 33983 ft | 439 kts | 268° |
| 2026-04-27 19:49 | 29.05775 | 35.47626 | 33986 ft | 439 kts | 268° |
| 2026-04-27 19:50 | 29.05536 | 35.40644 | 33983 ft | 438 kts | 268° |
| 2026-04-27 19:50 | 29.05297 | 35.33728 | 33977 ft | 438 kts | 268° |
| 2026-04-27 19:51 | 29.05053 | 35.26769 | 33973 ft | 437 kts | 268° |
| 2026-04-27 19:51 | 29.04806 | 35.19830 | 33986 ft | 437 kts | 268° |
| 2026-04-27 19:52 | 29.04554 | 35.12874 | 33977 ft | 438 kts | 268° |
| 2026-04-27 19:52 | 29.04299 | 35.05917 | 33964 ft | 438 kts | 268° |
| 2026-04-27 19:53 | 29.03912 | 34.95529 | 33961 ft | 438 kts | 268° |
| 2026-04-27 19:53 | 29.03648 | 34.88562 | 33950 ft | 439 kts | 268° |
| 2026-04-27 19:54 | 29.03409 | 34.81582 | 33935 ft | 440 kts | 269° |
| 2026-04-27 19:54 | 29.03272 | 34.74579 | 33941 ft | 440 kts | 269° |
| 2026-04-27 19:55 | 29.03685 | 34.67643 | 33950 ft | 441 kts | 278° |
| 2026-04-27 19:55 | 29.04995 | 34.60798 | 33959 ft | 442 kts | 286° |
| 2026-04-27 19:56 | 29.06946 | 34.54114 | 33968 ft | 444 kts | 287° |
| 2026-04-27 19:56 | 29.08955 | 34.47429 | 33971 ft | 445 kts | 287° |
| 2026-04-27 19:57 | 29.10940 | 34.40723 | 33980 ft | 444 kts | 287° |
| 2026-04-27 19:57 | 29.12886 | 34.34071 | 33984 ft | 444 kts | 287° |
| 2026-04-27 19:58 | 29.14834 | 34.27383 | 33996 ft | 443 kts | 287° |
| 2026-04-27 19:58 | 29.16774 | 34.20710 | 33993 ft | 441 kts | 287° |
| 2026-04-27 19:59 | 29.18709 | 34.14048 | 34006 ft | 440 kts | 287° |
| 2026-04-27 19:59 | 29.20637 | 34.07390 | 34008 ft | 440 kts | 287° |
| 2026-04-27 20:00 | 29.22560 | 34.00740 | 34020 ft | 439 kts | 287° |
| 2026-04-27 20:00 | 29.24467 | 33.94133 | 34017 ft | 439 kts | 287° |
| 2026-04-27 20:01 | 29.26386 | 33.87476 | 34017 ft | 440 kts | 287° |
| 2026-04-27 20:01 | 29.28299 | 33.80825 | 34018 ft | 440 kts | 287° |
| 2026-04-27 20:02 | 29.30216 | 33.74147 | 34024 ft | 440 kts | 287° |
| 2026-04-27 20:02 | 29.32126 | 33.67478 | 34024 ft | 441 kts | 287° |
| 2026-04-27 20:03 | 29.34036 | 33.60795 | 34019 ft | 441 kts | 287° |
| 2026-04-27 20:03 | 29.35931 | 33.54151 | 34024 ft | 441 kts | 287° |
| 2026-04-27 20:04 | 29.37837 | 33.47455 | 34028 ft | 442 kts | 287° |
| 2026-04-27 20:04 | 29.39429 | 33.41848 | 34032 ft | 442 kts | 287° |
| 2026-04-27 20:05 | 29.41639 | 33.34051 | 34024 ft | 442 kts | 287° |
| 2026-04-27 20:05 | 29.43536 | 33.27344 | 34029 ft | 442 kts | 287° |
| 2026-04-27 20:06 | 29.45112 | 33.21760 | 34023 ft | 443 kts | 287° |
| 2026-04-27 20:06 | 29.47007 | 33.15031 | 34030 ft | 443 kts | 287° |
| 2026-04-27 20:07 | 29.48899 | 33.08296 | 34013 ft | 443 kts | 287° |
| 2026-04-27 20:07 | 29.50787 | 33.01565 | 34008 ft | 443 kts | 287° |
| 2026-04-27 20:08 | 29.52672 | 32.94829 | 34005 ft | 443 kts | 287° |
| 2026-04-27 20:08 | 29.54555 | 32.88088 | 34000 ft | 443 kts | 287° |
| 2026-04-27 20:09 | 29.56419 | 32.81395 | 34002 ft | 443 kts | 287° |
| 2026-04-27 20:09 | 29.58291 | 32.74663 | 34000 ft | 442 kts | 287° |
| 2026-04-27 20:10 | 29.60141 | 32.67929 | 33998 ft | 442 kts | 286° |
| 2026-04-27 20:10 | 29.61726 | 32.61099 | 33993 ft | 442 kts | 284° |
| 2026-04-27 20:11 | 29.63249 | 32.54256 | 34000 ft | 441 kts | 284° |
| 2026-04-27 20:11 | 29.64777 | 32.47424 | 33999 ft | 441 kts | 285° |
| 2026-04-27 20:12 | 29.66304 | 32.40638 | 34006 ft | 441 kts | 285° |
| 2026-04-27 20:12 | 29.67840 | 32.33808 | 34007 ft | 441 kts | 285° |
| 2026-04-27 20:13 | 29.69371 | 32.26983 | 34004 ft | 441 kts | 285° |
| 2026-04-27 20:13 | 29.70901 | 32.20143 | 34006 ft | 441 kts | 285° |
| 2026-04-27 20:14 | 29.72423 | 32.13319 | 34007 ft | 440 kts | 285° |
| 2026-04-27 20:14 | 29.73942 | 32.06489 | 34009 ft | 441 kts | 285° |
| 2026-04-27 20:15 | 29.75461 | 31.99646 | 34011 ft | 441 kts | 285° |
| 2026-04-27 20:15 | 29.76969 | 31.92856 | 34006 ft | 441 kts | 286° |
| 2026-04-27 20:16 | 29.79242 | 31.86311 | 34019 ft | 440 kts | 296° |
| 2026-04-27 20:16 | 29.82405 | 31.80274 | 34007 ft | 441 kts | 304° |
| 2026-04-27 20:17 | 29.86108 | 31.74627 | 34008 ft | 441 kts | 306° |
| 2026-04-27 20:17 | 29.89795 | 31.68964 | 34018 ft | 441 kts | 305° |
| 2026-04-27 20:18 | 29.93427 | 31.63315 | 34028 ft | 441 kts | 305° |
| 2026-04-27 20:18 | 29.97089 | 31.57637 | 34034 ft | 441 kts | 305° |
| 2026-04-27 20:19 | 30.00751 | 31.51953 | 34041 ft | 441 kts | 305° |
| 2026-04-27 20:19 | 30.04407 | 31.46269 | 34051 ft | 440 kts | 305° |
| 2026-04-27 20:20 | 30.08070 | 31.40598 | 34047 ft | 441 kts | 307° |
| 2026-04-27 20:20 | 30.12261 | 31.35427 | 34049 ft | 442 kts | 315° |
| 2026-04-27 20:21 | 30.16769 | 31.30644 | 34045 ft | 442 kts | 315° |
| 2026-04-27 20:21 | 30.21299 | 31.25822 | 34040 ft | 442 kts | 315° |
| 2026-04-27 20:22 | 30.25814 | 31.20983 | 34034 ft | 442 kts | 314° |
| 2026-04-27 20:22 | 30.30318 | 31.16139 | 34029 ft | 442 kts | 314° |
| 2026-04-27 20:23 | 30.34062 | 31.12104 | 34024 ft | 442 kts | 314° |
| 2026-04-27 20:23 | 30.39333 | 31.06418 | 34026 ft | 442 kts | 314° |
| 2026-04-27 20:24 | 30.43809 | 31.01582 | 34017 ft | 443 kts | 314° |
| 2026-04-27 20:24 | 30.48309 | 30.96715 | 34024 ft | 443 kts | 314° |
| 2026-04-27 20:25 | 30.52820 | 30.91829 | 34028 ft | 443 kts | 314° |
| 2026-04-27 20:25 | 30.57327 | 30.86941 | 34026 ft | 443 kts | 314° |
| 2026-04-27 20:26 | 30.61832 | 30.82048 | 34025 ft | 443 kts | 314° |
| 2026-04-27 20:26 | 30.66331 | 30.77156 | 34026 ft | 443 kts | 314° |
| 2026-04-27 20:27 | 30.70806 | 30.72282 | 34025 ft | 443 kts | 314° |
| 2026-04-27 20:27 | 30.75305 | 30.67377 | 34027 ft | 443 kts | 314° |
| 2026-04-27 20:28 | 30.79806 | 30.62463 | 34023 ft | 443 kts | 314° |
| 2026-04-27 20:28 | 30.83538 | 30.58383 | 34021 ft | 443 kts | 314° |
| 2026-04-27 20:29 | 30.88782 | 30.52643 | 34024 ft | 443 kts | 314° |
| 2026-04-27 20:29 | 30.93265 | 30.47727 | 34025 ft | 442 kts | 314° |
| 2026-04-27 20:30 | 30.97718 | 30.42839 | 34024 ft | 442 kts | 314° |
| 2026-04-27 20:30 | 31.02190 | 30.37922 | 34025 ft | 442 kts | 314° |
| 2026-04-27 20:31 | 31.06567 | 30.32895 | 34023 ft | 440 kts | 307° |
| 2026-04-27 20:31 | 31.09862 | 30.26915 | 34040 ft | 438 kts | 296° |
| 2026-04-27 20:32 | 31.12019 | 30.20282 | 34049 ft | 438 kts | 288° |
| 2026-04-27 20:32 | 31.13805 | 30.13484 | 34046 ft | 438 kts | 288° |
| 2026-04-27 20:33 | 31.15628 | 30.06729 | 34047 ft | 438 kts | 288° |
| 2026-04-27 20:33 | 31.17545 | 29.99979 | 34042 ft | 436 kts | 294° |
| 2026-04-27 20:34 | 31.19109 | 29.96937 | 34051 ft | 437 kts | 306° |
| 2026-04-27 20:34 | 31.21128 | 29.94281 | 34055 ft | 439 kts | 314° |
| 2026-04-27 20:34 | 31.23493 | 29.92011 | 34039 ft | 443 kts | 325° |
| 2026-04-27 20:34 | 31.26190 | 29.90257 | 34062 ft | 444 kts | 328° |
| 2026-04-27 20:35 | 31.31698 | 29.86930 | 34052 ft | 446 kts | 329° |
| 2026-04-27 20:35 | 31.37218 | 29.83570 | 34047 ft | 447 kts | 328° |
| 2026-04-27 20:36 | 31.42726 | 29.80148 | 34038 ft | 448 kts | 328° |
| 2026-04-27 20:36 | 31.48195 | 29.76719 | 34041 ft | 449 kts | 328° |
| 2026-04-27 20:37 | 31.53696 | 29.73262 | 34041 ft | 449 kts | 328° |
| 2026-04-27 20:37 | 31.59201 | 29.69798 | 34032 ft | 448 kts | 328° |
| 2026-04-27 20:38 | 31.64690 | 29.66341 | 34030 ft | 448 kts | 328° |
| 2026-04-27 20:38 | 31.70184 | 29.62877 | 34049 ft | 447 kts | 328° |
| 2026-04-27 20:39 | 31.75675 | 29.59411 | 34040 ft | 447 kts | 328° |
| 2026-04-27 20:39 | 31.81111 | 29.55973 | 34043 ft | 446 kts | 328° |
| 2026-04-27 20:40 | 31.86581 | 29.52510 | 34043 ft | 446 kts | 328° |
| 2026-04-27 20:40 | 31.92053 | 29.49040 | 34050 ft | 446 kts | 328° |
| 2026-04-27 20:41 | 31.97524 | 29.45566 | 34048 ft | 446 kts | 328° |
| 2026-04-27 20:41 | 32.02952 | 29.42113 | 34048 ft | 446 kts | 328° |
| 2026-04-27 20:42 | 32.08412 | 29.38623 | 34047 ft | 446 kts | 328° |
| 2026-04-27 20:42 | 32.13871 | 29.35128 | 34048 ft | 446 kts | 328° |
| 2026-04-27 20:43 | 32.19323 | 29.31634 | 34054 ft | 446 kts | 328° |
| 2026-04-27 20:43 | 32.24778 | 29.28137 | 34051 ft | 446 kts | 328° |
| 2026-04-27 20:44 | 32.30233 | 29.24644 | 34052 ft | 446 kts | 328° |
| 2026-04-27 20:44 | 32.35690 | 29.21143 | 34050 ft | 446 kts | 328° |
| 2026-04-27 20:45 | 32.41113 | 29.17659 | 34048 ft | 446 kts | 328° |
| 2026-04-27 20:45 | 32.46569 | 29.14147 | 34052 ft | 445 kts | 328° |
| 2026-04-27 20:46 | 32.52013 | 29.10639 | 34051 ft | 445 kts | 328° |
| 2026-04-27 20:46 | 32.57454 | 29.07127 | 34053 ft | 445 kts | 328° |
| 2026-04-27 20:47 | 32.62861 | 29.03632 | 34048 ft | 445 kts | 328° |
| 2026-04-27 20:47 | 32.68296 | 29.00115 | 34052 ft | 445 kts | 328° |
| 2026-04-27 20:48 | 32.72846 | 28.97166 | 34049 ft | 444 kts | 328° |
| 2026-04-27 20:48 | 32.79157 | 28.93071 | 34048 ft | 444 kts | 328° |
| 2026-04-27 20:49 | 32.84590 | 28.89540 | 34051 ft | 445 kts | 328° |
| 2026-04-27 20:49 | 32.90017 | 28.86008 | 34055 ft | 445 kts | 328° |
| 2026-04-27 20:50 | 32.95421 | 28.82486 | 34052 ft | 445 kts | 328° |
| 2026-04-27 20:50 | 33.00858 | 28.78938 | 34054 ft | 445 kts | 328° |
| 2026-04-27 20:51 | 33.06293 | 28.75385 | 34055 ft | 445 kts | 328° |
| 2026-04-27 20:51 | 33.11718 | 28.71834 | 34051 ft | 445 kts | 328° |
| 2026-04-27 20:52 | 33.17154 | 28.68272 | 34051 ft | 445 kts | 328° |
| 2026-04-27 20:52 | 33.22595 | 28.64700 | 34051 ft | 446 kts | 328° |
| 2026-04-27 20:53 | 33.27996 | 28.61149 | 34048 ft | 446 kts | 328° |
| 2026-04-27 20:53 | 33.33435 | 28.57569 | 34040 ft | 446 kts | 328° |
| 2026-04-27 20:54 | 33.40714 | 28.52769 | 34045 ft | 446 kts | 328° |
| 2026-04-27 20:55 | 33.46153 | 28.49177 | 34047 ft | 447 kts | 328° |
| 2026-04-27 20:55 | 33.51559 | 28.45601 | 34047 ft | 447 kts | 328° |
| 2026-04-27 20:56 | 33.57002 | 28.41995 | 34049 ft | 447 kts | 328° |
| 2026-04-27 20:56 | 33.62446 | 28.38384 | 34049 ft | 447 kts | 328° |
| 2026-04-27 20:57 | 33.67891 | 28.34765 | 34054 ft | 447 kts | 327° |
| 2026-04-27 20:57 | 33.73335 | 28.31144 | 34042 ft | 447 kts | 327° |
| 2026-04-27 20:58 | 33.78938 | 28.27976 | 34062 ft | 452 kts | 338° |
| 2026-04-27 20:58 | 33.85094 | 28.26222 | 34035 ft | 459 kts | 348° |
| 2026-04-27 20:59 | 33.91494 | 28.25656 | 34047 ft | 461 kts | 352° |
| 2026-04-27 20:59 | 33.97907 | 28.25234 | 34040 ft | 461 kts | 352° |
| 2026-04-27 21:00 | 34.04311 | 28.24780 | 34038 ft | 461 kts | 351° |
| 2026-04-27 21:00 | 34.10719 | 28.24288 | 34040 ft | 460 kts | 351° |
| 2026-04-27 21:01 | 34.17116 | 28.23783 | 34038 ft | 460 kts | 351° |
| 2026-04-27 21:01 | 34.23508 | 28.23275 | 34039 ft | 460 kts | 351° |
| 2026-04-27 21:02 | 34.29864 | 28.22771 | 34034 ft | 460 kts | 351° |
| 2026-04-27 21:02 | 34.36264 | 28.22263 | 34032 ft | 461 kts | 351° |
| 2026-04-27 21:03 | 34.42669 | 28.21755 | 34027 ft | 461 kts | 351° |
| 2026-04-27 21:03 | 34.49074 | 28.21246 | 34028 ft | 462 kts | 352° |
| 2026-04-27 21:04 | 34.55495 | 28.20734 | 34025 ft | 462 kts | 352° |
| 2026-04-27 21:04 | 34.61921 | 28.20222 | 34024 ft | 463 kts | 352° |
| 2026-04-27 21:05 | 34.68358 | 28.19707 | 34021 ft | 464 kts | 352° |
| 2026-04-27 21:05 | 34.74768 | 28.19195 | 34017 ft | 465 kts | 352° |
| 2026-04-27 21:06 | 34.81240 | 28.18676 | 34018 ft | 466 kts | 352° |
| 2026-04-27 21:06 | 34.87719 | 28.18156 | 34018 ft | 467 kts | 352° |
| 2026-04-27 21:07 | 34.94205 | 28.17635 | 34017 ft | 467 kts | 352° |
| 2026-04-27 21:07 | 35.00691 | 28.17113 | 34013 ft | 467 kts | 352° |
| 2026-04-27 21:08 | 35.07187 | 28.16590 | 34008 ft | 468 kts | 352° |
| 2026-04-27 21:08 | 35.13649 | 28.16068 | 34009 ft | 468 kts | 352° |
| 2026-04-27 21:09 | 35.20144 | 28.15543 | 34006 ft | 468 kts | 352° |
| 2026-04-27 21:09 | 35.26645 | 28.15016 | 34007 ft | 468 kts | 352° |
| 2026-04-27 21:10 | 35.33147 | 28.14488 | 34003 ft | 468 kts | 352° |
| 2026-04-27 21:10 | 35.39652 | 28.13959 | 34004 ft | 468 kts | 353° |
| 2026-04-27 21:11 | 35.46165 | 28.13429 | 34007 ft | 469 kts | 353° |
| 2026-04-27 21:11 | 35.52675 | 28.12899 | 34003 ft | 469 kts | 353° |
| 2026-04-27 21:12 | 35.59192 | 28.12366 | 34000 ft | 469 kts | 353° |
| 2026-04-27 21:12 | 35.65714 | 28.11833 | 33996 ft | 470 kts | 353° |
| 2026-04-27 21:13 | 35.72199 | 28.11302 | 33997 ft | 470 kts | 353° |
| 2026-04-27 21:13 | 35.78740 | 28.10765 | 33993 ft | 471 kts | 353° |
| 2026-04-27 21:14 | 35.85275 | 28.10228 | 33995 ft | 471 kts | 353° |
| 2026-04-27 21:14 | 35.91825 | 28.09688 | 33996 ft | 472 kts | 353° |
| 2026-04-27 21:15 | 35.98385 | 28.09147 | 33995 ft | 472 kts | 353° |
| 2026-04-27 21:15 | 36.04946 | 28.08605 | 33993 ft | 472 kts | 353° |
| 2026-04-27 21:16 | 36.11513 | 28.08061 | 33995 ft | 473 kts | 353° |
| 2026-04-27 21:16 | 36.18041 | 28.07520 | 33998 ft | 473 kts | 354° |
| 2026-04-27 21:17 | 36.24606 | 28.06975 | 34001 ft | 473 kts | 354° |
| 2026-04-27 21:17 | 36.31181 | 28.06428 | 33997 ft | 473 kts | 354° |
| 2026-04-27 21:18 | 36.37755 | 28.05881 | 33993 ft | 474 kts | 354° |
| 2026-04-27 21:18 | 36.40033 | 28.05690 | 33995 ft | 474 kts | 354° |